Time;durP1;ratioP1;P1;durP2;ratioP2;P2;SDS_P1;SDS_P2;PMS_P1;PMS_P2;Temp;Humidity;BMP_temperature;BMP_pressure;BME280_temperature;BME280_humidity;BME280_pressure;Samples;Min_cycle;Max_cycle;Signal;HPM_P1;HPM_P2
2021/05/29 00:02:15;;;;;;;;;;;;;;;15.56;54.01;101890.91;5063126;27;97328;-82
2021/05/29 00:04:44;;;;;;;;;;;;;;;15.78;53.49;101893.63;5064116;27;96753;-82
2021/05/29 00:07:09;;;;;;;;;;;;;;;15.57;53.87;101889.97;5059950;27;98916;-82
2021/05/29 00:09:36;;;;;;;;;;;;;;;15.16;54.50;101887.03;5059761;27;98748;-82
2021/05/29 00:12:04;;;;;;;;;;;;;;;15.45;53.71;101891.28;5061719;27;96900;-82
2021/05/29 00:14:32;;;;;;;;;;;;;;;15.52;53.52;101883.94;5062058;27;96806;-82
2021/05/29 00:16:58;;;;;;;;;;;;;;;15.17;54.42;101893.22;5062060;27;101350;-82
2021/05/29 00:19:24;;;;;;;;;;;;;;;15.12;54.48;101903.16;5055589;27;98830;-83
2021/05/29 00:21:50;;;;;;;;;;;;;;;15.30;53.96;101899.84;5048540;27;97136;-82
2021/05/29 00:24:16;;;;;;;;;;;;;;;15.00;54.55;101887.66;5062694;27;96715;-83
2021/05/29 00:26:43;;;;;;;;;;;;;;;15.22;53.97;101882.41;5054297;27;99335;-81
2021/05/29 00:29:23;;;;;;;;;;;;;;;15.19;54.38;101887.84;5066413;27;99033;-82
2021/05/29 00:31:49;;;;;;;;;;;;;;;15.44;53.46;101888.66;5058081;27;97169;-83
2021/05/29 00:34:18;;;;;;;;;;;;;;;15.48;53.24;101884.97;5072123;27;96965;-82
2021/05/29 00:36:44;;;;;;;;;;;;;;;15.11;54.18;101886.31;5071400;27;97017;-83
2021/05/29 00:39:09;;;;;;;;;;;;;;;15.40;53.41;101882.59;5059826;27;100061;-82
2021/05/29 00:41:35;;;;;;;;;;;;;;;15.44;53.27;101884.22;5074532;27;96857;-82
2021/05/29 00:44:01;;;;;;;;;;;;;;;15.57;52.58;101883.78;5065857;27;96769;-82
2021/05/29 00:46:28;;;;;;;;;;;;;;;15.38;53.26;101884.44;5062539;27;100228;-82
2021/05/29 00:48:54;;;;;;;;;;;;;;;15.52;53.00;101890.16;5062102;27;98154;-81
2021/05/29 00:51:20;;;;;;;;;;;;;;;15.38;53.22;101884.44;5060988;27;97325;-82
2021/05/29 00:53:47;;;;;;;;;;;;;;;15.23;53.59;101889.50;5053537;27;97060;-82
2021/05/29 00:56:13;;;;;;;;;;;;;;;15.08;53.75;101885.59;5058183;27;100419;-83
2021/05/29 00:58:39;;;;;;;;;;;;;;;15.06;53.82;101890.09;5062338;27;100408;-83
2021/05/29 01:01:05;;;;;;;;;;;;;;;15.34;53.48;101888.16;5060368;27;96799;-82
2021/05/29 01:03:36;;;;;;;;;;;;;;;14.89;54.91;101885.38;5062440;27;96692;-83
2021/05/29 01:06:01;;;;;;;;;;;;;;;15.03;54.69;101888.38;5059592;27;100372;-82
2021/05/29 01:08:27;;;;;;;;;;;;;;;14.81;54.70;101882.09;5053631;27;98637;-82
2021/05/29 01:10:54;;;;;;;;;;;;;;;14.83;54.79;101879.41;5058880;27;97056;-82
2021/05/29 01:13:24;;;;;;;;;;;;;;;15.10;54.18;101886.38;5074686;27;96764;-82
2021/05/29 01:15:50;;;;;;;;;;;;;;;14.69;55.11;101882.53;5054389;27;99599;-82
2021/05/29 01:18:17;;;;;;;;;;;;;;;14.82;55.06;101881.19;5060539;27;101670;-82
2021/05/29 01:20:44;;;;;;;;;;;;;;;14.77;55.17;101884.00;5054499;27;98311;-83
2021/05/29 01:23:12;;;;;;;;;;;;;;;14.93;54.85;101896.75;5054273;27;97324;-83
2021/05/29 01:25:40;;;;;;;;;;;;;;;14.93;54.76;101892.31;5057633;27;98071;-82
2021/05/29 01:28:07;;;;;;;;;;;;;;;15.01;54.45;101889.38;5062030;27;98797;-82
2021/05/29 01:30:35;;;;;;;;;;;;;;;14.63;55.31;101894.25;5075261;27;96572;-82
2021/05/29 01:33:01;;;;;;;;;;;;;;;14.73;55.23;101895.66;5072010;27;96700;-82
2021/05/29 01:35:27;;;;;;;;;;;;;;;14.90;54.71;101896.88;5076788;27;97915;-81
2021/05/29 01:37:53;;;;;;;;;;;;;;;14.73;55.21;101890.34;5072706;27;96873;-82
2021/05/29 01:40:20;;;;;;;;;;;;;;;15.06;54.22;101890.09;5070737;27;96767;-82
2021/05/29 01:42:46;;;;;;;;;;;;;;;14.84;54.97;101897.06;5063590;27;96866;-82
2021/05/29 01:45:13;;;;;;;;;;;;;;;14.98;54.28;101893.00;5059357;27;98359;-82
2021/05/29 01:47:42;;;;;;;;;;;;;;;14.88;54.95;101893.41;5056873;27;99620;-82
2021/05/29 01:50:08;;;;;;;;;;;;;;;14.92;54.67;101895.03;5060766;27;97086;-82
2021/05/29 01:52:47;;;;;;;;;;;;;;;14.77;55.22;101899.09;5060704;27;96881;-82
2021/05/29 01:55:13;;;;;;;;;;;;;;;14.94;54.74;101902.03;5056845;27;97277;-82
2021/05/29 01:57:40;;;;;;;;;;;;;;;14.39;56.24;101897.72;5060537;27;98913;-82
2021/05/29 02:00:06;;;;;;;;;;;;;;;14.73;55.50;101908.09;5059623;27;96847;-82
2021/05/29 02:02:33;;;;;;;;;;;;;;;14.16;57.25;101902.91;5061523;27;97414;-81
2021/05/29 02:04:59;;;;;;;;;;;;;;;14.35;56.66;101894.28;5068073;27;101381;-81
2021/05/29 02:07:25;;;;;;;;;;;;;;;14.19;56.79;101897.47;5049368;27;98813;-82
2021/05/29 02:09:51;;;;;;;;;;;;;;;14.48;56.26;101897.44;5060826;27;96842;-81
2021/05/29 02:12:17;;;;;;;;;;;;;;;14.60;55.85;101891.69;5041399;27;96938;-82
2021/05/29 02:14:44;;;;;;;;;;;;;;;14.24;56.73;101898.22;5051968;27;98067;-82
2021/05/29 02:17:09;;;;;;;;;;;;;;;14.28;56.87;101894.53;5053260;27;98757;-82
2021/05/29 02:19:35;;;;;;;;;;;;;;;14.16;57.10;101894.94;5058489;27;96672;-82
2021/05/29 02:22:01;;;;;;;;;;;;;;;13.98;57.45;101898.16;5060187;27;96881;-81
2021/05/29 02:24:27;;;;;;;;;;;;;;;14.39;56.71;101888.88;5066007;27;100026;-82
2021/05/29 02:26:53;;;;;;;;;;;;;;;14.53;56.19;101902.59;5060521;27;97797;-81
2021/05/29 02:29:19;;;;;;;;;;;;;;;14.27;57.01;101898.09;5063054;27;96614;-82
2021/05/29 02:31:46;;;;;;;;;;;;;;;14.31;56.88;101897.06;5057647;27;96877;-82
2021/05/29 02:34:12;;;;;;;;;;;;;;;14.21;57.01;101895.63;5061870;27;97650;-82
2021/05/29 02:36:38;;;;;;;;;;;;;;;14.08;57.26;101897.81;5071256;27;100175;-81
2021/05/29 02:39:04;;;;;;;;;;;;;;;14.15;57.30;101901.16;5056959;27;97644;-82
2021/05/29 02:41:30;;;;;;;;;;;;;;;14.54;56.24;101894.56;5053857;27;97430;-82
2021/05/29 02:43:56;;;;;;;;;;;;;;;14.26;56.86;101909.66;5058508;27;98886;-82
2021/05/29 02:46:21;;;;;;;;;;;;;;;14.39;56.58;101915.47;5056409;27;98993;-81
2021/05/29 02:48:48;;;;;;;;;;;;;;;14.29;56.63;101902.47;5058668;27;96769;-81
2021/05/29 02:51:14;;;;;;;;;;;;;;;14.12;57.10;101909.22;5047632;27;96895;-82
2021/05/29 02:53:41;;;;;;;;;;;;;;;14.15;57.12;101912.66;5058042;27;98812;-82
2021/05/29 02:56:07;;;;;;;;;;;;;;;14.27;56.52;101912.25;5048479;27;100832;-81
2021/05/29 02:58:33;;;;;;;;;;;;;;;14.46;56.29;101909.91;5057921;27;97210;-82
2021/05/29 03:00:59;;;;;;;;;;;;;;;14.50;56.03;101908.91;5059555;27;96773;-82
2021/05/29 03:03:24;;;;;;;;;;;;;;;14.61;56.02;101911.19;5056280;27;101531;-82
2021/05/29 03:05:51;;;;;;;;;;;;;;;14.30;56.75;101911.31;5048050;27;102090;-82
2021/05/29 03:08:19;;;;;;;;;;;;;;;14.22;56.59;101908.88;5058877;27;96882;-82
2021/05/29 03:10:46;;;;;;;;;;;;;;;14.12;57.15;101911.88;5059013;27;98182;-82
2021/05/29 03:13:13;;;;;;;;;;;;;;;13.62;58.93;101921.41;5055710;27;99159;-82
2021/05/29 03:15:39;;;;;;;;;;;;;;;14.20;57.10;101916.03;5059085;27;98511;-82
2021/05/29 03:18:05;;;;;;;;;;;;;;;14.27;56.81;101922.03;5066603;27;96795;-82
2021/05/29 03:20:31;;;;;;;;;;;;;;;14.38;56.40;101930.53;5071857;27;97068;-81
2021/05/29 03:22:59;;;;;;;;;;;;;;;14.26;56.72;101920.28;5068065;27;100043;-81
2021/05/29 03:25:25;;;;;;;;;;;;;;;14.18;56.96;101917.00;5063508;27;99960;-82
2021/05/29 03:27:53;;;;;;;;;;;;;;;14.41;56.46;101921.63;5066567;27;96726;-82
2021/05/29 03:30:20;;;;;;;;;;;;;;;14.47;56.12;101919.63;5068252;27;97418;-82
2021/05/29 03:32:46;;;;;;;;;;;;;;;14.50;55.91;101914.22;5063073;27;98063;-82
2021/05/29 03:35:13;;;;;;;;;;;;;;;14.59;55.74;101921.88;5059567;27;99233;-82
2021/05/29 03:37:39;;;;;;;;;;;;;;;14.55;55.87;101917.59;5063107;27;96670;-81
2021/05/29 03:40:09;;;;;;;;;;;;;;;14.47;55.93;101921.41;5061726;27;96887;-82
2021/05/29 03:42:35;;;;;;;;;;;;;;;14.71;55.57;101923.25;5063183;27;100819;-81
2021/05/29 03:45:02;;;;;;;;;;;;;;;13.49;59.22;101929.72;5060167;27;101902;-82
2021/05/29 03:47:28;;;;;;;;;;;;;;;13.14;61.12;101924.53;5064343;27;97045;-82
2021/05/29 03:49:54;;;;;;;;;;;;;;;13.39;61.11;101930.88;5067011;27;96862;-82
2021/05/29 03:52:19;;;;;;;;;;;;;;;11.97;66.19;101932.75;5071798;27;100285;-82
2021/05/29 03:54:45;;;;;;;;;;;;;;;12.28;65.48;101932.91;5072871;27;100606;-81
2021/05/29 03:57:12;;;;;;;;;;;;;;;12.51;64.65;101932.34;5075611;27;96826;-82
2021/05/29 03:59:38;;;;;;;;;;;;;;;12.34;66.04;101940.69;5075487;27;96741;-81
2021/05/29 04:02:05;;;;;;;;;;;;;;;11.70;68.45;101946.53;5073802;27;99135;-82
2021/05/29 04:04:31;;;;;;;;;;;;;;;12.52;66.05;101934.97;5077817;27;97695;-81
2021/05/29 04:06:58;;;;;;;;;;;;;;;13.37;62.84;101942.47;5064366;27;96858;-82
2021/05/29 04:09:24;;;;;;;;;;;;;;;13.49;61.66;101942.13;5069053;27;96893;-83
2021/05/29 04:11:50;;;;;;;;;;;;;;;13.82;60.55;101940.28;5060283;27;102395;-83
2021/05/29 04:14:17;;;;;;;;;;;;;;;13.96;60.23;101932.75;5072435;27;99238;-82
2021/05/29 04:16:43;;;;;;;;;;;;;;;13.61;61.16;101947.09;5069977;27;96801;-82
2021/05/29 04:19:09;;;;;;;;;;;;;;;14.08;59.71;101948.31;5065909;27;96782;-82
2021/05/29 04:21:35;;;;;;;;;;;;;;;13.57;61.52;101946.31;5064353;27;97512;-82
2021/05/29 04:24:01;;;;;;;;;;;;;;;14.11;59.95;101940.22;5072971;27;98277;-82
2021/05/29 04:26:27;;;;;;;;;;;;;;;13.64;60.41;101948.78;5069533;27;96867;-82
2021/05/29 04:28:54;;;;;;;;;;;;;;;13.23;62.36;101956.13;5067449;27;96561;-82
2021/05/29 04:31:21;;;;;;;;;;;;;;;12.72;64.39;101953.03;5060353;27;100824;-82
2021/05/29 04:33:47;;;;;;;;;;;;;;;13.12;63.54;101947.56;5059480;27;100193;-82
2021/05/29 04:36:14;;;;;;;;;;;;;;;12.53;64.99;101952.63;5060295;27;96647;-81
2021/05/29 04:38:40;;;;;;;;;;;;;;;12.90;64.43;101955.22;5064005;27;96842;-82
2021/05/29 04:41:05;;;;;;;;;;;;;;;13.10;63.68;101960.00;5058182;27;98037;-81
2021/05/29 04:43:32;;;;;;;;;;;;;;;13.18;63.38;101954.53;5058550;27;101872;-82
2021/05/29 04:45:58;;;;;;;;;;;;;;;13.50;62.18;101963.34;5054319;27;97068;-83
2021/05/29 04:48:25;;;;;;;;;;;;;;;13.89;60.31;101958.66;5060340;27;96858;-83
2021/05/29 04:53:35;;;;;;;;;;;;;;;14.08;59.86;101964.28;5049053;27;96966;-82
2021/05/29 04:56:01;;;;;;;;;;;;;;;13.85;60.09;101964.94;5060765;27;96687;-82
2021/05/29 04:58:28;;;;;;;;;;;;;;;14.35;58.97;101968.72;5060799;27;97023;-82
2021/05/29 05:00:54;;;;;;;;;;;;;;;13.67;60.64;101968.16;5059437;27;99114;-82
2021/05/29 05:03:21;;;;;;;;;;;;;;;13.69;61.33;101969.00;5059165;27;99174;-82
2021/05/29 05:05:48;;;;;;;;;;;;;;;13.07;63.36;101973.34;5058290;27;96834;-83
2021/05/29 05:08:14;;;;;;;;;;;;;;;13.41;62.54;101976.84;5059291;27;96876;-83
2021/05/29 05:10:40;;;;;;;;;;;;;;;13.34;62.91;101990.34;5058074;27;97557;-83
2021/05/29 05:13:06;;;;;;;;;;;;;;;12.80;64.61;101996.13;5048721;27;99245;-82
2021/05/29 05:15:32;;;;;;;;;;;;;;;12.10;67.67;101997.78;5058087;27;96737;-83
2021/05/29 05:17:58;;;;;;;;;;;;;;;12.95;65.68;102003.72;5058551;27;96918;-82
2021/05/29 05:20:24;;;;;;;;;;;;;;;12.89;65.21;102003.88;5059211;27;101789;-83
2021/05/29 05:22:51;;;;;;;;;;;;;;;13.12;64.73;102001.56;5055010;27;102063;-82
2021/05/29 05:25:17;;;;;;;;;;;;;;;13.07;65.12;102000.75;5059428;27;96797;-82
2021/05/29 05:27:44;;;;;;;;;;;;;;;13.73;63.19;102004.28;5059988;27;96802;-83
2021/05/29 05:30:11;;;;;;;;;;;;;;;14.12;61.53;102007.56;5058520;27;98376;-83
2021/05/29 05:32:38;;;;;;;;;;;;;;;13.69;62.70;102002.66;5061122;27;99013;-83
2021/05/29 05:35:08;;;;;;;;;;;;;;;12.98;64.63;101998.34;5049038;27;96830;-83
2021/05/29 05:37:34;;;;;;;;;;;;;;;13.70;63.08;102015.88;5060147;27;96696;-83
2021/05/29 05:40:01;;;;;;;;;;;;;;;13.87;62.31;102013.59;5058591;27;97901;-83
2021/05/29 05:42:26;;;;;;;;;;;;;;;13.79;62.08;102009.41;5059614;27;98943;-83
2021/05/29 05:44:52;;;;;;;;;;;;;;;14.47;60.21;102009.16;5049323;27;96957;-83
2021/05/29 05:47:18;;;;;;;;;;;;;;;13.69;62.51;102019.47;5058343;27;97396;-82
2021/05/29 05:49:44;;;;;;;;;;;;;;;13.36;64.26;102021.25;5056070;27;98847;-81
2021/05/29 05:52:10;;;;;;;;;;;;;;;13.69;63.24;102013.28;5056960;27;97698;-83
2021/05/29 05:54:36;;;;;;;;;;;;;;;14.04;62.14;102017.56;5057853;27;96891;-83
2021/05/29 05:57:03;;;;;;;;;;;;;;;13.90;62.79;102017.97;5060684;27;96657;-82
2021/05/29 05:59:29;;;;;;;;;;;;;;;13.56;64.04;102020.72;5056454;27;99130;-83
2021/05/29 06:01:55;;;;;;;;;;;;;;;14.14;62.13;102008.38;5059295;27;97774;-83
2021/05/29 06:04:21;;;;;;;;;;;;;;;14.35;61.31;102007.75;5056872;27;96932;-82
2021/05/29 06:06:47;;;;;;;;;;;;;;;14.24;61.60;102012.53;5058337;27;96775;-85
2021/05/29 06:09:14;;;;;;;;;;;;;;;14.51;60.39;102016.13;5065025;27;100248;-83
2021/05/29 06:11:40;;;;;;;;;;;;;;;14.74;59.79;102010.94;5068087;27;98187;-83
2021/05/29 06:19:35;;;;;;;;;;;;;;;15.08;57.97;102019.56;5056829;27;98187;-82
2021/05/29 06:22:02;;;;;;;;;;;;;;;14.91;58.42;102027.22;5057717;27;97948;-83
2021/05/29 06:24:31;;;;;;;;;;;;;;;14.96;58.35;102030.63;5056415;27;97845;-85
2021/05/29 06:26:57;;;;;;;;;;;;;;;14.61;60.51;102041.53;5066415;27;96745;-83
2021/05/29 06:29:27;;;;;;;;;;;;;;;14.87;59.35;102035.38;5067937;27;101324;-85
2021/05/29 06:31:53;;;;;;;;;;;;;;;15.21;58.32;102035.97;5067544;27;100182;-83
2021/05/29 06:34:19;;;;;;;;;;;;;;;15.35;57.71;102040.84;5063676;27;96752;-82
2021/05/29 06:36:45;;;;;;;;;;;;;;;14.90;58.96;102051.25;5053787;27;97049;-84
2021/05/29 06:39:11;;;;;;;;;;;;;;;15.12;58.47;102046.94;5072444;27;100945;-83
2021/05/29 06:41:40;;;;;;;;;;;;;;;15.66;56.73;102053.97;5073923;27;98005;-83
2021/05/29 06:44:06;;;;;;;;;;;;;;;15.37;57.04;102042.50;5069252;27;96468;-82
2021/05/29 06:46:32;;;;;;;;;;;;;;;15.63;56.75;102038.06;5072335;27;97068;-85
2021/05/29 06:49:05;;;;;;;;;;;;;;;16.00;55.20;102043.81;5074360;27;100194;-84
2021/05/29 06:51:38;;;;;;;;;;;;;;;16.38;53.92;102044.13;5075345;27;99643;-84
2021/05/29 06:54:07;;;;;;;;;;;;;;;16.37;53.68;102053.06;5076073;27;96888;-84
2021/05/29 06:59:17;;;;;;;;;;;;;;;15.64;55.80;102050.47;5078291;27;97167;-82
2021/05/29 07:01:47;;;;;;;;;;;;;;;16.12;54.20;102047.81;5072506;27;98012;-84
2021/05/29 07:04:18;;;;;;;;;;;;;;;16.45;53.56;102050.97;5076613;27;96787;-84
2021/05/29 07:06:44;;;;;;;;;;;;;;;16.80;52.72;102037.13;5073402;27;97042;-85
2021/05/29 07:09:10;;;;;;;;;;;;;;;16.27;53.29;102048.09;5070555;27;97336;-83
2021/05/29 07:11:56;;;;;;;;;;;;;;;16.37;53.41;102047.72;5072709;27;98861;-85
2021/05/29 07:14:22;;;;;;;;;;;;;;;16.57;52.72;102050.47;5067755;27;97244;-83
2021/05/29 07:16:51;;;;;;;;;;;;;;;16.65;52.35;102051.09;5062952;27;97057;-83
2021/05/29 07:19:17;;;;;;;;;;;;;;;17.33;50.47;102058.00;5066456;27;99343;-84
2021/05/29 07:21:42;;;;;;;;;;;;;;;17.27;50.42;102051.13;5061719;27;101092;-81
2021/05/29 07:24:08;;;;;;;;;;;;;;;17.72;49.56;102058.16;5063010;27;98702;-83
2021/05/29 07:26:34;;;;;;;;;;;;;;;18.15;48.42;102049.88;5064566;27;97398;-83
2021/05/29 07:29:00;;;;;;;;;;;;;;;18.44;47.72;102048.53;5062670;27;100830;-83
2021/05/29 07:31:26;;;;;;;;;;;;;;;18.46;47.45;102048.44;5067239;27;98260;-85
2021/05/29 07:33:55;;;;;;;;;;;;;;;18.84;46.19;102047.47;5068747;27;96683;-84
2021/05/29 07:36:21;;;;;;;;;;;;;;;18.51;45.64;102049.94;5064795;27;96825;-85
2021/05/29 07:38:46;;;;;;;;;;;;;;;18.41;46.34;102051.34;5057344;27;99236;-82
2021/05/29 07:41:13;;;;;;;;;;;;;;;19.48;44.24;102047.81;5064352;27;97093;-81
2021/05/29 07:43:38;;;;;;;;;;;;;;;17.71;47.45;102049.25;5069403;27;96981;-81
2021/05/29 07:46:05;;;;;;;;;;;;;;;18.35;46.17;102048.97;5064212;27;96859;-81
2021/05/29 07:48:32;;;;;;;;;;;;;;;18.02;46.50;102046.03;5067660;27;100603;-81
2021/05/29 07:51:01;;;;;;;;;;;;;;;17.86;46.23;102053.88;5067182;27;99677;-82
2021/05/29 07:53:28;;;;;;;;;;;;;;;18.00;46.57;102055.94;5062016;27;96934;-82
2021/05/29 07:55:54;;;;;;;;;;;;;;;18.87;44.81;102054.50;5065585;27;98193;-82
2021/05/29 07:58:21;;;;;;;;;;;;;;;17.66;47.32;102053.03;5061477;27;101910;-83
2021/05/29 08:00:50;;;;;;;;;;;;;;;18.61;45.46;102059.31;5069733;27;98922;-83
2021/05/29 08:03:17;;;;;;;;;;;;;;;18.33;46.16;102053.50;5066188;27;96707;-83
2021/05/29 08:05:43;;;;;;;;;;;;;;;18.45;45.35;102054.72;5066793;27;96681;-84
2021/05/29 08:08:10;;;;;;;;;;;;;;;18.48;44.93;102046.56;5063853;27;99213;-84
2021/05/29 08:10:36;;;;;;;;;;;;;;;19.14;43.45;102046.91;5052528;27;98990;-84
2021/05/29 08:13:02;;;;;;;;;;;;;;;18.67;44.52;102047.44;5064830;27;96741;-84
2021/05/29 08:15:28;;;;;;;;;;;;;;;18.70;44.86;102052.66;5053550;27;97009;-84
2021/05/29 08:17:54;;;;;;;;;;;;;;;18.91;44.36;102043.56;5048264;27;99363;-85
2021/05/29 08:20:20;;;;;;;;;;;;;;;18.28;45.88;102056.41;5061612;27;102803;-84
2021/05/29 08:22:46;;;;;;;;;;;;;;;18.30;46.29;102051.00;5065930;27;96740;-83
2021/05/29 08:25:14;;;;;;;;;;;;;;;19.65;43.10;102051.41;5061118;27;96893;-83
2021/05/29 08:27:40;;;;;;;;;;;;;;;18.30;45.79;102065.25;5066148;27;100645;-85
2021/05/29 08:30:07;;;;;;;;;;;;;;;17.57;47.91;102058.78;5048545;27;100006;-83
2021/05/29 08:32:33;;;;;;;;;;;;;;;18.21;46.29;102059.44;5055594;27;96688;-85
2021/05/29 08:35:00;;;;;;;;;;;;;;;18.94;44.59;102056.81;5055394;27;96763;-84
2021/05/29 08:37:26;;;;;;;;;;;;;;;18.83;44.70;102061.84;5060932;27;99110;-84
2021/05/29 08:39:56;;;;;;;;;;;;;;;19.04;44.11;102065.22;5071862;27;98108;-84
2021/05/29 08:42:23;;;;;;;;;;;;;;;19.62;42.96;102062.31;5072171;27;97487;-84
2021/05/29 08:44:58;;;;;;;;;;;;;;;19.29;43.65;102060.41;5071728;27;96966;-83
2021/05/29 08:47:24;;;;;;;;;;;;;;;19.68;42.80;102059.31;5065299;27;99341;-83
2021/05/29 08:49:50;;;;;;;;;;;;;;;19.48;42.69;102054.97;5062311;27;97876;-81
2021/05/29 08:52:17;;;;;;;;;;;;;;;19.82;42.23;102054.91;5059080;27;98728;-84
2021/05/29 08:54:46;;;;;;;;;;;;;;;19.81;42.38;102060.38;5067917;27;96853;-86
2021/05/29 08:57:16;;;;;;;;;;;;;;;20.22;42.07;102058.13;5067796;27;100657;-82
2021/05/29 08:59:43;;;;;;;;;;;;;;;19.62;42.73;102059.63;5057550;27;100135;-84
2021/05/29 09:02:10;;;;;;;;;;;;;;;20.91;39.89;102053.31;5067755;27;97047;-83
2021/05/29 09:04:40;;;;;;;;;;;;;;;19.91;41.32;102050.88;5067697;27;96983;-83
2021/05/29 09:07:23;;;;;;;;;;;;;;;19.41;42.67;102051.72;5066619;27;101508;-83
2021/05/29 09:10:11;;;;;;;;;;;;;;;19.38;42.59;102051.88;5067278;27;98087;-83
2021/05/29 09:12:38;;;;;;;;;;;;;;;20.81;39.82;102046.72;5056418;27;96918;-84
2021/05/29 09:15:05;;;;;;;;;;;;;;;20.63;40.63;102050.47;5055376;27;97677;-84
2021/05/29 09:17:32;;;;;;;;;;;;;;;21.00;39.97;102050.06;5060459;27;99914;-85
2021/05/29 09:20:00;;;;;;;;;;;;;;;20.81;40.25;102060.16;5052439;27;100711;-90
2021/05/29 09:22:27;;;;;;;;;;;;;;;20.48;40.40;102062.94;5079775;27;96701;-88
2021/05/29 09:24:57;;;;;;;;;;;;;;;19.85;41.58;102060.13;5071149;27;96726;-84
2021/05/29 09:27:22;;;;;;;;;;;;;;;19.35;42.78;102061.88;5078949;27;97159;-85
2021/05/29 09:29:48;;;;;;;;;;;;;;;20.00;41.12;102069.19;5070191;27;101178;-82
2021/05/29 09:32:23;;;;;;;;;;;;;;;20.80;39.42;102068.31;5060040;27;98761;-84
2021/05/29 09:34:51;;;;;;;;;;;;;;;20.77;39.99;102066.66;5059707;27;96767;-83
2021/05/29 09:37:18;;;;;;;;;;;;;;;20.15;41.53;102071.00;5061783;27;101373;-84
2021/05/29 09:39:44;;;;;;;;;;;;;;;20.48;40.46;102062.94;5057242;27;99150;-83
2021/05/29 09:42:11;;;;;;;;;;;;;;;20.24;40.45;102069.66;5058663;27;96785;-82
2021/05/29 09:44:38;;;;;;;;;;;;;;;21.17;38.38;102056.31;5056635;27;97100;-81
2021/05/29 09:47:04;;;;;;;;;;;;;;;20.68;39.98;102056.44;5054380;27;98564;-81
2021/05/29 09:49:47;;;;;;;;;;;;;;;20.82;39.83;102061.03;5049635;27;100972;-81
2021/05/29 09:52:26;;;;;;;;;;;;;;;21.16;39.47;102054.59;5066833;27;96904;-82
2021/05/29 09:54:53;;;;;;;;;;;;;;;21.08;39.74;102063.94;5049324;27;96902;-81
2021/05/29 09:57:19;;;;;;;;;;;;;;;20.77;40.36;102055.06;5061842;27;98869;-81
2021/05/29 09:59:59;;;;;;;;;;;;;;;20.44;40.49;102061.38;5054409;27;98055;-81
2021/05/29 10:02:26;;;;;;;;;;;;;;;19.98;40.50;102063.00;5048727;27;96933;-81
2021/05/29 10:04:55;;;;;;;;;;;;;;;21.16;38.36;102054.59;5054414;27;97265;-80
2021/05/29 10:07:21;;;;;;;;;;;;;;;21.01;39.08;102057.19;5055630;27;99955;-80
2021/05/29 10:09:47;;;;;;;;;;;;;;;20.98;39.52;102064.56;5055780;27;99163;-81
2021/05/29 10:12:14;;;;;;;;;;;;;;;20.50;40.28;102063.72;5054916;27;96859;-81
2021/05/29 10:14:40;;;;;;;;;;;;;;;21.06;39.72;102065.88;5057259;27;97184;-81
2021/05/29 10:17:07;;;;;;;;;;;;;;;20.76;39.77;102056.88;5055808;27;101595;-82
2021/05/29 10:19:33;;;;;;;;;;;;;;;21.86;37.95;102062.81;5051056;27;98052;-81
2021/05/29 10:22:05;;;;;;;;;;;;;;;21.29;38.41;102055.59;5056443;27;96716;-81
2021/05/29 10:24:31;;;;;;;;;;;;;;;20.33;40.75;102062.94;5056284;27;97194;-80
2021/05/29 10:26:57;;;;;;;;;;;;;;;19.79;42.60;102059.59;5059729;27;101169;-81
2021/05/29 10:29:26;;;;;;;;;;;;;;;20.52;40.87;102055.59;5065916;27;101245;-80
2021/05/29 10:32:08;;;;;;;;;;;;;;;20.63;39.99;102063.91;5067393;27;96776;-80
2021/05/29 10:34:51;;;;;;;;;;;;;;;21.01;38.78;102059.88;5071484;27;96797;-80
2021/05/29 10:37:25;;;;;;;;;;;;;;;20.75;39.44;102060.50;5064728;27;98996;-82
2021/05/29 10:39:51;;;;;;;;;;;;;;;20.44;40.57;102060.53;5069963;27;100109;-80
2021/05/29 10:42:28;;;;;;;;;;;;;;;20.04;40.97;102057.31;5057738;27;96962;-80
2021/05/29 10:45:13;;;;;;;;;;;;;;;19.58;42.62;102063.41;5059847;27;97113;-82
2021/05/29 10:47:59;;;;;;;;;;;;;;;20.16;41.21;102059.31;5065539;27;97061;-81
2021/05/29 10:50:58;;;;;;;;;;;;;;;20.85;39.02;102045.63;5069626;27;98678;-84
2021/05/29 10:56:56;;;;;;;;;;;;;;;19.92;41.51;102054.44;5060710;27;96621;-83
2021/05/29 10:59:33;;;;;;;;;;;;;;;20.27;41.18;102056.94;5055572;27;98186;-84
2021/05/29 11:02:08;;;;;;;;;;;;;;;20.50;39.93;102050.31;5055348;27;98044;-83
2021/05/29 11:04:34;;;;;;;;;;;;;;;20.64;40.07;102049.53;5069502;27;96725;-83
2021/05/29 11:07:15;;;;;;;;;;;;;;;21.05;39.48;102047.13;5075169;27;96746;-82
2021/05/29 11:09:53;;;;;;;;;;;;;;;20.59;38.76;102056.97;5056030;27;100315;-83
2021/05/29 11:12:21;;;;;;;;;;;;;;;20.82;38.50;102051.16;5063184;27;100433;-82
2021/05/29 11:14:48;;;;;;;;;;;;;;;20.58;39.50;102053.44;5069997;27;97609;-81
2021/05/29 11:17:15;;;;;;;;;;;;;;;20.09;40.88;102055.25;5062240;27;97117;-82
2021/05/29 11:19:42;;;;;;;;;;;;;;;20.62;40.13;102054.97;5065157;27;97791;-82
2021/05/29 11:22:10;;;;;;;;;;;;;;;21.22;38.77;102048.84;5066359;27;97934;-83
2021/05/29 11:24:39;;;;;;;;;;;;;;;21.58;38.34;102048.47;5067736;27;96835;-80
2021/05/29 11:27:06;;;;;;;;;;;;;;;20.18;39.70;102054.75;5070564;27;97387;-81
2021/05/29 11:29:47;;;;;;;;;;;;;;;20.18;40.17;102057.44;5067740;27;99802;-83
2021/05/29 11:32:14;;;;;;;;;;;;;;;20.45;40.18;102057.75;5061841;27;97961;-82
2021/05/29 11:34:40;;;;;;;;;;;;;;;20.64;39.79;102057.59;5063940;27;97382;-83
2021/05/29 11:37:11;;;;;;;;;;;;;;;20.73;39.33;102056.19;5078424;27;96542;-82
2021/05/29 11:39:37;;;;;;;;;;;;;;;20.65;39.21;102048.56;5080648;27;99686;-82
2021/05/29 11:42:05;;;;;;;;;;;;;;;20.29;40.37;102055.00;5079285;27;96621;-83
2021/05/29 11:44:32;;;;;;;;;;;;;;;20.06;40.70;102049.19;5079003;27;96734;-82
2021/05/29 11:46:59;;;;;;;;;;;;;;;20.42;39.24;102049.84;5076848;27;96686;-84
2021/05/29 11:49:34;;;;;;;;;;;;;;;20.37;40.69;102046.56;5078198;27;98927;-83
2021/05/29 11:52:00;;;;;;;;;;;;;;;20.12;40.95;102035.44;5063768;27;97824;-83
2021/05/29 11:54:32;;;;;;;;;;;;;;;20.49;40.60;102042.31;5060067;27;96826;-83
2021/05/29 11:56:58;;;;;;;;;;;;;;;20.82;40.05;102043.09;5048845;27;96997;-83
2021/05/29 11:59:24;;;;;;;;;;;;;;;21.38;38.96;102038.91;5066400;27;99325;-82
2021/05/29 12:01:59;;;;;;;;;;;;;;;21.30;38.29;102041.19;5070702;27;98100;-82
2021/05/29 12:04:26;;;;;;;;;;;;;;;21.46;38.40;102048.22;5080698;27;95941;-83
2021/05/29 12:06:55;;;;;;;;;;;;;;;20.63;39.71;102058.53;5078865;27;96655;-83
2021/05/29 12:09:22;;;;;;;;;;;;;;;21.29;38.88;102056.47;5080930;27;99863;-84
2021/05/29 12:11:50;;;;;;;;;;;;;;;20.88;39.27;102072.28;5077545;27;99001;-83
2021/05/29 12:14:17;;;;;;;;;;;;;;;21.67;37.98;102053.25;5069475;27;96714;-84
2021/05/29 12:16:44;;;;;;;;;;;;;;;21.82;37.31;102053.19;5069942;27;96767;-83
2021/05/29 12:19:28;;;;;;;;;;;;;;;20.36;39.47;102057.38;5066687;27;97808;-83
2021/05/29 12:21:55;;;;;;;;;;;;;;;21.02;38.52;102048.16;5065647;27;99865;-83
2021/05/29 12:24:22;;;;;;;;;;;;;;;20.36;40.38;102052.03;5067725;27;96632;-84
2021/05/29 12:26:49;;;;;;;;;;;;;;;19.90;40.87;102058.06;5067960;27;96831;-82
2021/05/29 12:29:18;;;;;;;;;;;;;;;19.61;41.81;102057.88;5066985;27;97116;-82
2021/05/29 12:31:45;;;;;;;;;;;;;;;20.39;40.02;102049.19;5065378;27;101249;-82
2021/05/29 12:34:11;;;;;;;;;;;;;;;20.60;39.23;102042.59;5066708;27;96715;-83
2021/05/29 12:36:51;;;;;;;;;;;;;;;19.92;41.07;102044.56;5066545;27;96572;-83
2021/05/29 12:39:18;;;;;;;;;;;;;;;19.96;40.98;102048.81;5050605;27;97575;-81
2021/05/29 12:41:45;;;;;;;;;;;;;;;19.30;42.72;102040.66;5055755;27;101288;-83
2021/05/29 12:44:11;;;;;;;;;;;;;;;20.72;39.96;102049.09;5067313;27;96681;-83
2021/05/29 12:46:37;;;;;;;;;;;;;;;21.13;39.06;102050.25;5065374;27;96638;-83
2021/05/29 12:49:04;;;;;;;;;;;;;;;21.58;37.41;102038.56;5066562;27;99561;-83
2021/05/29 12:51:37;;;;;;;;;;;;;;;22.00;36.61;102039.56;5064830;27;96857;-82
2021/05/29 12:54:03;;;;;;;;;;;;;;;23.00;34.98;102036.59;5065080;27;96772;-83